Harrisburg, PA (17177)

11:26 PM EST on December 21, 2014 (GMT -0500)
Lenker Manor | Change Station
CLOSE
Current Station
Personal Weather Station
Location: Harrisburg, PA
Elevation: 435 ft
Nearby Weather Stations

Elev 435 ft 40.26 °N, 76.83 °W | Updated 28 seconds ago

Clear
Clear
27.5 °F
Feels Like 28 °F
N
1.6
Wind Variable Wind from North
Gusts 1.6 mph

Today
High -- | Low -- °F
--% Chance of Precip.
Yesterday
High -- | Low -- °F
Precip. -- in
7:26 AM 4:44 PM
New Moon, 0% visible
Pressure 30.35 in
Visibility 7.0 miles
Clouds Few 20000 ft
Windchill 28 °F
Dew Point 19 °F
Humidity 71%
Rainfall 0.00 in
Snow Depth Not available.
UV 0 out of 12
Pollen .10 out of 12
Air Quality Not available.
Flu Activity Not available.
METAR KMDT 220356Z 00000KT 7SM FEW200 M04/M07 A3034 RMK AO2 SLP278 T10441067 $

More Conditions Fewer Conditions

Pressure 30.35 in
Visibility 7.0 miles
Clouds Few 20000 ft
Windchill 28 °F
Dew Point 19 °F
Humidity 71%
Rainfall 0.00 in
Snow Depth Not available.
UV 0 out of 12
Pollen .10 out of 12
Air Quality Not available.
Flu Activity Not available.
METAR KMDT 220356Z 00000KT 7SM FEW200 M04/M07 A3034 RMK AO2 SLP278 T10441067 $

More Conditions Fewer Conditions

10-Day Weather Forecast

Almanac

Astronomy

Dec. 21, 2014 Rise Set
Actual Time
Civil Twilight
Nautical Twilight
Astronomical Twilight
Moon
Length of Visible Light
Length of Day
Tomorrow will be .
, % of the Moon is Illuminated

Today's Extremes

State Highs State Lows

Community

WunderPhotos

Upload Photos

1,779,537 photos uploaded!

WunderBlogs® & News

Nearby

Air Quality

  Air Quality AQ Index Pollutant
Not available.

Snow Depth

Station Depth Elevation

Earthquake Activity

City Distance Mag. Time & Date
Minimum magnitude displayed is 2.5.

Coastal Water Temperatures

Place Temperature

Nearby Weather Stations